sensor_id;sensor_type;location;lat;lon;timestamp;P1;durP1;ratioP1;P2;durP2;ratioP2
64282;SDS011;50497;50.720;-2.084;2023-07-31T00:01:24;29.60;;;6.72;;
64282;SDS011;50497;50.720;-2.084;2023-07-31T00:03:49;34.80;;;7.07;;
64282;SDS011;50497;50.720;-2.084;2023-07-31T00:06:14;31.13;;;6.55;;
64282;SDS011;50497;50.720;-2.084;2023-07-31T00:08:40;31.23;;;7.97;;
64282;SDS011;50497;50.720;-2.084;2023-07-31T00:11:05;36.30;;;8.45;;
64282;SDS011;50497;50.720;-2.084;2023-07-31T00:13:30;30.67;;;7.45;;
64282;SDS011;50497;50.720;-2.084;2023-07-31T00:15:56;32.45;;;7.03;;
64282;SDS011;50497;50.720;-2.084;2023-07-31T00:18:21;36.47;;;6.97;;
64282;SDS011;50497;50.720;-2.084;2023-07-31T00:20:46;29.27;;;6.38;;
64282;SDS011;50497;50.720;-2.084;2023-07-31T00:23:12;30.98;;;7.03;;
64282;SDS011;50497;50.720;-2.084;2023-07-31T00:25:37;30.17;;;7.15;;
64282;SDS011;50497;50.720;-2.084;2023-07-31T00:28:03;21.70;;;5.68;;
64282;SDS011;50497;50.720;-2.084;2023-07-31T00:30:28;22.30;;;5.57;;
64282;SDS011;50497;50.720;-2.084;2023-07-31T00:32:54;29.67;;;5.68;;
64282;SDS011;50497;50.720;-2.084;2023-07-31T00:35:19;26.50;;;6.32;;
64282;SDS011;50497;50.720;-2.084;2023-07-31T00:37:44;32.65;;;6.72;;
64282;SDS011;50497;50.720;-2.084;2023-07-31T00:40:10;20.60;;;5.50;;
64282;SDS011;50497;50.720;-2.084;2023-07-31T00:42:35;30.48;;;6.97;;
64282;SDS011;50497;50.720;-2.084;2023-07-31T00:45:00;27.50;;;6.28;;
64282;SDS011;50497;50.720;-2.084;2023-07-31T00:47:26;38.95;;;6.75;;
64282;SDS011;50497;50.720;-2.084;2023-07-31T00:49:51;28.90;;;6.38;;
64282;SDS011;50497;50.720;-2.084;2023-07-31T00:52:17;24.48;;;5.00;;
64282;SDS011;50497;50.720;-2.084;2023-07-31T00:54:43;26.50;;;5.60;;
64282;SDS011;50497;50.720;-2.084;2023-07-31T00:57:08;27.13;;;5.38;;
64282;SDS011;50497;50.720;-2.084;2023-07-31T00:59:34;17.30;;;4.55;;
64282;SDS011;50497;50.720;-2.084;2023-07-31T01:01:59;22.35;;;5.05;;
64282;SDS011;50497;50.720;-2.084;2023-07-31T01:04:25;19.50;;;5.03;;
64282;SDS011;50497;50.720;-2.084;2023-07-31T01:09:33;18.48;;;4.72;;
64282;SDS011;50497;50.720;-2.084;2023-07-31T01:12:01;19.45;;;5.40;;
64282;SDS011;50497;50.720;-2.084;2023-07-31T01:14:28;21.60;;;5.20;;
64282;SDS011;50497;50.720;-2.084;2023-07-31T01:16:54;22.25;;;5.28;;
64282;SDS011;50497;50.720;-2.084;2023-07-31T01:19:23;25.75;;;5.57;;
64282;SDS011;50497;50.720;-2.084;2023-07-31T01:27:50;20.02;;;4.53;;
64282;SDS011;50497;50.720;-2.084;2023-07-31T01:30:25;21.27;;;4.53;;
64282;SDS011;50497;50.720;-2.084;2023-07-31T01:32:54;16.63;;;4.15;;
64282;SDS011;50497;50.720;-2.084;2023-07-31T01:35:21;20.27;;;4.70;;
64282;SDS011;50497;50.720;-2.084;2023-07-31T01:37:46;15.60;;;3.60;;
64282;SDS011;50497;50.720;-2.084;2023-07-31T01:40:12;18.33;;;4.50;;
64282;SDS011;50497;50.720;-2.084;2023-07-31T01:42:37;16.95;;;4.15;;
64282;SDS011;50497;50.720;-2.084;2023-07-31T01:45:03;14.02;;;3.50;;
64282;SDS011;50497;50.720;-2.084;2023-07-31T01:47:28;16.23;;;3.80;;
64282;SDS011;50497;50.720;-2.084;2023-07-31T01:49:54;16.65;;;4.20;;
64282;SDS011;50497;50.720;-2.084;2023-07-31T01:52:19;16.40;;;4.10;;
64282;SDS011;50497;50.720;-2.084;2023-07-31T01:54:44;17.13;;;4.18;;
64282;SDS011;50497;50.720;-2.084;2023-07-31T01:57:10;19.60;;;4.60;;
64282;SDS011;50497;50.720;-2.084;2023-07-31T01:59:35;17.42;;;4.28;;
64282;SDS011;50497;50.720;-2.084;2023-07-31T02:02:00;18.25;;;4.45;;
64282;SDS011;50497;50.720;-2.084;2023-07-31T02:04:26;14.02;;;3.90;;
64282;SDS011;50497;50.720;-2.084;2023-07-31T02:06:52;18.27;;;3.97;;
64282;SDS011;50497;50.720;-2.084;2023-07-31T02:09:18;14.32;;;4.05;;
64282;SDS011;50497;50.720;-2.084;2023-07-31T02:11:43;16.48;;;3.60;;
64282;SDS011;50497;50.720;-2.084;2023-07-31T02:14:08;13.75;;;3.42;;
64282;SDS011;50497;50.720;-2.084;2023-07-31T02:16:34;18.77;;;4.25;;
64282;SDS011;50497;50.720;-2.084;2023-07-31T02:18:59;14.93;;;3.50;;
64282;SDS011;50497;50.720;-2.084;2023-07-31T02:21:24;14.35;;;3.75;;
64282;SDS011;50497;50.720;-2.084;2023-07-31T02:23:50;14.98;;;3.58;;
64282;SDS011;50497;50.720;-2.084;2023-07-31T02:26:15;16.02;;;4.43;;
64282;SDS011;50497;50.720;-2.084;2023-07-31T02:28:41;18.08;;;3.88;;
64282;SDS011;50497;50.720;-2.084;2023-07-31T02:31:08;19.77;;;4.32;;
64282;SDS011;50497;50.720;-2.084;2023-07-31T02:33:33;22.33;;;5.07;;
64282;SDS011;50497;50.720;-2.084;2023-07-31T02:35:59;20.67;;;5.30;;
64282;SDS011;50497;50.720;-2.084;2023-07-31T02:38:24;21.60;;;4.85;;
64282;SDS011;50497;50.720;-2.084;2023-07-31T02:40:49;20.70;;;4.90;;
64282;SDS011;50497;50.720;-2.084;2023-07-31T02:43:15;23.17;;;5.90;;
64282;SDS011;50497;50.720;-2.084;2023-07-31T02:45:40;18.52;;;4.85;;
64282;SDS011;50497;50.720;-2.084;2023-07-31T02:48:05;22.23;;;4.90;;
64282;SDS011;50497;50.720;-2.084;2023-07-31T02:50:31;18.50;;;4.43;;
64282;SDS011;50497;50.720;-2.084;2023-07-31T02:52:57;20.08;;;4.85;;
64282;SDS011;50497;50.720;-2.084;2023-07-31T02:55:22;23.23;;;4.55;;
64282;SDS011;50497;50.720;-2.084;2023-07-31T02:57:47;15.27;;;4.18;;
64282;SDS011;50497;50.720;-2.084;2023-07-31T03:00:13;17.23;;;4.55;;
64282;SDS011;50497;50.720;-2.084;2023-07-31T03:02:38;24.50;;;4.72;;
64282;SDS011;50497;50.720;-2.084;2023-07-31T03:05:04;22.25;;;4.43;;
64282;SDS011;50497;50.720;-2.084;2023-07-31T03:07:29;19.08;;;4.55;;
64282;SDS011;50497;50.720;-2.084;2023-07-31T03:09:55;20.08;;;4.43;;
64282;SDS011;50497;50.720;-2.084;2023-07-31T03:12:20;17.42;;;4.30;;
64282;SDS011;50497;50.720;-2.084;2023-07-31T03:14:46;15.35;;;4.25;;
64282;SDS011;50497;50.720;-2.084;2023-07-31T03:17:11;18.00;;;3.70;;
64282;SDS011;50497;50.720;-2.084;2023-07-31T03:19:36;14.93;;;3.88;;
64282;SDS011;50497;50.720;-2.084;2023-07-31T03:22:02;14.85;;;3.67;;
64282;SDS011;50497;50.720;-2.084;2023-07-31T03:24:28;21.67;;;4.65;;
64282;SDS011;50497;50.720;-2.084;2023-07-31T03:26:53;15.07;;;3.78;;
64282;SDS011;50497;50.720;-2.084;2023-07-31T03:29:19;10.88;;;3.08;;
64282;SDS011;50497;50.720;-2.084;2023-07-31T03:31:44;16.48;;;3.85;;
64282;SDS011;50497;50.720;-2.084;2023-07-31T03:34:09;16.42;;;3.95;;
64282;SDS011;50497;50.720;-2.084;2023-07-31T03:36:35;14.57;;;3.85;;
64282;SDS011;50497;50.720;-2.084;2023-07-31T03:39:00;17.48;;;4.15;;
64282;SDS011;50497;50.720;-2.084;2023-07-31T03:41:25;12.10;;;3.13;;
64282;SDS011;50497;50.720;-2.084;2023-07-31T03:43:51;16.00;;;3.90;;
64282;SDS011;50497;50.720;-2.084;2023-07-31T03:46:21;14.35;;;4.38;;
64282;SDS011;50497;50.720;-2.084;2023-07-31T03:48:47;15.80;;;3.60;;
64282;SDS011;50497;50.720;-2.084;2023-07-31T03:51:13;16.70;;;3.40;;
64282;SDS011;50497;50.720;-2.084;2023-07-31T03:53:38;21.35;;;4.00;;
64282;SDS011;50497;50.720;-2.084;2023-07-31T03:56:04;16.88;;;3.85;;
64282;SDS011;50497;50.720;-2.084;2023-07-31T03:58:29;12.75;;;3.58;;
64282;SDS011;50497;50.720;-2.084;2023-07-31T04:00:55;17.00;;;3.55;;
64282;SDS011;50497;50.720;-2.084;2023-07-31T04:03:20;18.33;;;4.03;;
64282;SDS011;50497;50.720;-2.084;2023-07-31T04:05:45;16.25;;;3.50;;
64282;SDS011;50497;50.720;-2.084;2023-07-31T04:08:11;19.15;;;3.92;;
64282;SDS011;50497;50.720;-2.084;2023-07-31T04:10:36;19.65;;;4.10;;
64282;SDS011;50497;50.720;-2.084;2023-07-31T04:13:02;15.32;;;4.40;;
64282;SDS011;50497;50.720;-2.084;2023-07-31T04:15:27;21.25;;;4.50;;
64282;SDS011;50497;50.720;-2.084;2023-07-31T04:17:52;19.27;;;4.40;;
64282;SDS011;50497;50.720;-2.084;2023-07-31T04:20:18;25.25;;;5.10;;
64282;SDS011;50497;50.720;-2.084;2023-07-31T04:22:43;20.70;;;4.55;;
64282;SDS011;50497;50.720;-2.084;2023-07-31T04:25:08;19.13;;;4.38;;
64282;SDS011;50497;50.720;-2.084;2023-07-31T04:27:34;15.65;;;4.70;;
64282;SDS011;50497;50.720;-2.084;2023-07-31T04:29:59;16.15;;;4.18;;
64282;SDS011;50497;50.720;-2.084;2023-07-31T04:32:24;20.33;;;4.60;;
64282;SDS011;50497;50.720;-2.084;2023-07-31T04:34:50;18.00;;;4.57;;
64282;SDS011;50497;50.720;-2.084;2023-07-31T04:37:15;11.90;;;4.10;;
64282;SDS011;50497;50.720;-2.084;2023-07-31T04:39:40;16.50;;;4.35;;
64282;SDS011;50497;50.720;-2.084;2023-07-31T04:42:06;15.88;;;4.13;;
64282;SDS011;50497;50.720;-2.084;2023-07-31T04:44:31;14.57;;;4.15;;
64282;SDS011;50497;50.720;-2.084;2023-07-31T04:46:57;19.00;;;4.32;;
64282;SDS011;50497;50.720;-2.084;2023-07-31T04:49:22;15.52;;;4.07;;
64282;SDS011;50497;50.720;-2.084;2023-07-31T04:51:47;17.08;;;4.30;;
64282;SDS011;50497;50.720;-2.084;2023-07-31T04:54:13;14.02;;;3.92;;
64282;SDS011;50497;50.720;-2.084;2023-07-31T04:56:40;16.40;;;3.95;;
64282;SDS011;50497;50.720;-2.084;2023-07-31T05:01:31;14.77;;;4.53;;
64282;SDS011;50497;50.720;-2.084;2023-07-31T05:03:56;17.25;;;4.13;;
64282;SDS011;50497;50.720;-2.084;2023-07-31T05:06:21;17.73;;;4.40;;
64282;SDS011;50497;50.720;-2.084;2023-07-31T05:08:47;16.55;;;5.10;;
64282;SDS011;50497;50.720;-2.084;2023-07-31T05:11:12;15.23;;;4.15;;
64282;SDS011;50497;50.720;-2.084;2023-07-31T05:13:37;19.58;;;4.38;;
64282;SDS011;50497;50.720;-2.084;2023-07-31T05:16:03;18.63;;;4.57;;
64282;SDS011;50497;50.720;-2.084;2023-07-31T05:18:28;16.35;;;4.15;;
64282;SDS011;50497;50.720;-2.084;2023-07-31T05:20:54;19.73;;;5.18;;
64282;SDS011;50497;50.720;-2.084;2023-07-31T05:23:19;19.17;;;4.90;;
64282;SDS011;50497;50.720;-2.084;2023-07-31T05:25:44;17.95;;;4.28;;
64282;SDS011;50497;50.720;-2.084;2023-07-31T05:28:11;15.02;;;4.05;;
64282;SDS011;50497;50.720;-2.084;2023-07-31T05:30:37;13.32;;;2.95;;
64282;SDS011;50497;50.720;-2.084;2023-07-31T05:33:02;13.35;;;3.15;;
64282;SDS011;50497;50.720;-2.084;2023-07-31T05:35:28;8.10;;;2.28;;
64282;SDS011;50497;50.720;-2.084;2023-07-31T05:37:53;10.82;;;2.70;;
64282;SDS011;50497;50.720;-2.084;2023-07-31T05:40:18;6.65;;;2.05;;
64282;SDS011;50497;50.720;-2.084;2023-07-31T05:42:44;9.18;;;2.42;;
64282;SDS011;50497;50.720;-2.084;2023-07-31T05:45:09;11.75;;;3.47;;
64282;SDS011;50497;50.720;-2.084;2023-07-31T05:47:35;9.00;;;2.65;;
64282;SDS011;50497;50.720;-2.084;2023-07-31T05:50:00;7.80;;;2.45;;
64282;SDS011;50497;50.720;-2.084;2023-07-31T05:52:26;9.45;;;2.50;;
64282;SDS011;50497;50.720;-2.084;2023-07-31T05:54:53;10.00;;;2.50;;
64282;SDS011;50497;50.720;-2.084;2023-07-31T05:57:19;11.50;;;2.80;;
64282;SDS011;50497;50.720;-2.084;2023-07-31T05:59:44;11.68;;;3.25;;
64282;SDS011;50497;50.720;-2.084;2023-07-31T06:02:09;10.32;;;3.20;;
64282;SDS011;50497;50.720;-2.084;2023-07-31T06:04:35;14.93;;;3.47;;
64282;SDS011;50497;50.720;-2.084;2023-07-31T06:07:00;11.57;;;3.80;;
64282;SDS011;50497;50.720;-2.084;2023-07-31T06:09:25;17.25;;;4.00;;
64282;SDS011;50497;50.720;-2.084;2023-07-31T06:11:51;18.00;;;4.78;;
64282;SDS011;50497;50.720;-2.084;2023-07-31T06:14:17;12.68;;;3.90;;
64282;SDS011;50497;50.720;-2.084;2023-07-31T06:16:42;13.25;;;3.70;;
64282;SDS011;50497;50.720;-2.084;2023-07-31T06:19:09;11.98;;;3.58;;
64282;SDS011;50497;50.720;-2.084;2023-07-31T06:21:34;12.63;;;3.35;;
64282;SDS011;50497;50.720;-2.084;2023-07-31T06:24:02;11.90;;;3.20;;
64282;SDS011;50497;50.720;-2.084;2023-07-31T06:26:28;12.95;;;3.33;;
64282;SDS011;50497;50.720;-2.084;2023-07-31T06:28:53;14.32;;;3.50;;
64282;SDS011;50497;50.720;-2.084;2023-07-31T06:31:18;10.55;;;3.30;;
64282;SDS011;50497;50.720;-2.084;2023-07-31T06:33:47;12.52;;;3.60;;
64282;SDS011;50497;50.720;-2.084;2023-07-31T06:36:13;10.80;;;3.08;;
64282;SDS011;50497;50.720;-2.084;2023-07-31T06:38:38;12.65;;;3.58;;
64282;SDS011;50497;50.720;-2.084;2023-07-31T06:41:04;15.00;;;3.40;;
64282;SDS011;50497;50.720;-2.084;2023-07-31T06:43:29;17.15;;;3.35;;
64282;SDS011;50497;50.720;-2.084;2023-07-31T06:45:54;11.57;;;3.10;;
64282;SDS011;50497;50.720;-2.084;2023-07-31T06:48:20;13.45;;;3.17;;
64282;SDS011;50497;50.720;-2.084;2023-07-31T06:50:45;13.50;;;3.85;;
64282;SDS011;50497;50.720;-2.084;2023-07-31T06:53:10;11.75;;;3.00;;
64282;SDS011;50497;50.720;-2.084;2023-07-31T06:55:36;14.88;;;2.80;;
64282;SDS011;50497;50.720;-2.084;2023-07-31T06:58:01;14.80;;;2.97;;
64282;SDS011;50497;50.720;-2.084;2023-07-31T07:00:27;10.75;;;3.00;;
64282;SDS011;50497;50.720;-2.084;2023-07-31T07:02:52;11.57;;;2.83;;
64282;SDS011;50497;50.720;-2.084;2023-07-31T07:05:18;10.30;;;2.88;;
64282;SDS011;50497;50.720;-2.084;2023-07-31T07:07:43;9.48;;;2.63;;
64282;SDS011;50497;50.720;-2.084;2023-07-31T07:10:10;11.25;;;2.60;;
64282;SDS011;50497;50.720;-2.084;2023-07-31T07:12:36;7.20;;;2.13;;
64282;SDS011;50497;50.720;-2.084;2023-07-31T07:15:02;12.25;;;2.53;;
64282;SDS011;50497;50.720;-2.084;2023-07-31T07:17:28;9.82;;;2.45;;
64282;SDS011;50497;50.720;-2.084;2023-07-31T07:19:56;9.48;;;2.30;;
64282;SDS011;50497;50.720;-2.084;2023-07-31T07:22:22;9.27;;;2.40;;
64282;SDS011;50497;50.720;-2.084;2023-07-31T07:24:48;9.77;;;2.20;;
64282;SDS011;50497;50.720;-2.084;2023-07-31T07:27:13;9.27;;;2.50;;
64282;SDS011;50497;50.720;-2.084;2023-07-31T07:29:38;12.02;;;2.60;;
64282;SDS011;50497;50.720;-2.084;2023-07-31T07:32:04;8.68;;;2.50;;
64282;SDS011;50497;50.720;-2.084;2023-07-31T07:34:30;9.45;;;2.67;;
64282;SDS011;50497;50.720;-2.084;2023-07-31T07:36:55;8.88;;;2.10;;
64282;SDS011;50497;50.720;-2.084;2023-07-31T07:39:20;8.40;;;2.30;;
64282;SDS011;50497;50.720;-2.084;2023-07-31T07:41:46;10.60;;;2.40;;
64282;SDS011;50497;50.720;-2.084;2023-07-31T07:44:12;9.88;;;2.33;;
64282;SDS011;50497;50.720;-2.084;2023-07-31T07:46:38;10.02;;;2.55;;
64282;SDS011;50497;50.720;-2.084;2023-07-31T07:49:03;7.35;;;2.97;;
64282;SDS011;50497;50.720;-2.084;2023-07-31T07:51:29;10.25;;;2.50;;
64282;SDS011;50497;50.720;-2.084;2023-07-31T07:53:56;7.63;;;1.90;;
64282;SDS011;50497;50.720;-2.084;2023-07-31T07:56:22;6.32;;;1.95;;
64282;SDS011;50497;50.720;-2.084;2023-07-31T07:58:49;9.50;;;2.47;;
64282;SDS011;50497;50.720;-2.084;2023-07-31T08:01:15;7.63;;;2.10;;
64282;SDS011;50497;50.720;-2.084;2023-07-31T08:03:40;10.23;;;2.20;;
64282;SDS011;50497;50.720;-2.084;2023-07-31T08:06:06;8.63;;;1.90;;
64282;SDS011;50497;50.720;-2.084;2023-07-31T08:08:34;7.43;;;2.00;;
64282;SDS011;50497;50.720;-2.084;2023-07-31T08:10:59;7.30;;;2.10;;
64282;SDS011;50497;50.720;-2.084;2023-07-31T08:13:25;9.98;;;2.20;;
64282;SDS011;50497;50.720;-2.084;2023-07-31T08:15:50;7.03;;;1.90;;
64282;SDS011;50497;50.720;-2.084;2023-07-31T08:18:15;6.35;;;1.80;;
64282;SDS011;50497;50.720;-2.084;2023-07-31T08:20:42;6.88;;;1.90;;
64282;SDS011;50497;50.720;-2.084;2023-07-31T08:23:08;7.72;;;2.00;;
64282;SDS011;50497;50.720;-2.084;2023-07-31T08:25:34;7.18;;;1.90;;
64282;SDS011;50497;50.720;-2.084;2023-07-31T08:28:00;5.43;;;1.73;;
64282;SDS011;50497;50.720;-2.084;2023-07-31T08:30:26;6.10;;;1.70;;
64282;SDS011;50497;50.720;-2.084;2023-07-31T08:32:51;7.82;;;1.83;;
64282;SDS011;50497;50.720;-2.084;2023-07-31T08:35:17;8.10;;;1.85;;
64282;SDS011;50497;50.720;-2.084;2023-07-31T08:37:42;9.15;;;2.13;;
64282;SDS011;50497;50.720;-2.084;2023-07-31T08:40:07;9.32;;;2.67;;
64282;SDS011;50497;50.720;-2.084;2023-07-31T08:42:33;9.43;;;1.83;;
64282;SDS011;50497;50.720;-2.084;2023-07-31T08:44:59;6.00;;;1.77;;
64282;SDS011;50497;50.720;-2.084;2023-07-31T08:47:26;7.25;;;1.90;;
64282;SDS011;50497;50.720;-2.084;2023-07-31T08:49:52;8.55;;;2.00;;
64282;SDS011;50497;50.720;-2.084;2023-07-31T08:54:44;12.13;;;2.13;;
64282;SDS011;50497;50.720;-2.084;2023-07-31T08:57:09;9.05;;;1.80;;
64282;SDS011;50497;50.720;-2.084;2023-07-31T08:59:36;12.13;;;2.22;;
64282;SDS011;50497;50.720;-2.084;2023-07-31T09:02:07;6.68;;;2.10;;
64282;SDS011;50497;50.720;-2.084;2023-07-31T09:04:33;11.07;;;1.92;;
64282;SDS011;50497;50.720;-2.084;2023-07-31T09:07:02;10.10;;;2.33;;
64282;SDS011;50497;50.720;-2.084;2023-07-31T09:09:32;8.55;;;1.92;;
64282;SDS011;50497;50.720;-2.084;2023-07-31T09:11:58;5.80;;;1.98;;
64282;SDS011;50497;50.720;-2.084;2023-07-31T09:14:27;6.47;;;1.80;;
64282;SDS011;50497;50.720;-2.084;2023-07-31T09:16:53;6.25;;;1.70;;
64282;SDS011;50497;50.720;-2.084;2023-07-31T09:19:24;7.10;;;1.70;;
64282;SDS011;50497;50.720;-2.084;2023-07-31T09:21:54;8.50;;;1.77;;
64282;SDS011;50497;50.720;-2.084;2023-07-31T09:24:29;6.32;;;1.80;;
64282;SDS011;50497;50.720;-2.084;2023-07-31T09:26:56;7.20;;;1.95;;
64282;SDS011;50497;50.720;-2.084;2023-07-31T09:29:24;5.93;;;1.75;;
64282;SDS011;50497;50.720;-2.084;2023-07-31T09:34:15;9.07;;;2.20;;
64282;SDS011;50497;50.720;-2.084;2023-07-31T09:36:41;5.55;;;1.63;;
64282;SDS011;50497;50.720;-2.084;2023-07-31T09:39:15;6.05;;;1.65;;
64282;SDS011;50497;50.720;-2.084;2023-07-31T09:41:48;6.72;;;2.10;;
64282;SDS011;50497;50.720;-2.084;2023-07-31T09:44:19;7.15;;;2.20;;
64282;SDS011;50497;50.720;-2.084;2023-07-31T09:46:44;6.38;;;1.70;;
64282;SDS011;50497;50.720;-2.084;2023-07-31T09:49:11;5.25;;;1.67;;
64282;SDS011;50497;50.720;-2.084;2023-07-31T09:51:37;7.15;;;1.88;;
64282;SDS011;50497;50.720;-2.084;2023-07-31T09:54:10;6.03;;;1.60;;
64282;SDS011;50497;50.720;-2.084;2023-07-31T09:56:38;6.18;;;1.63;;
64282;SDS011;50497;50.720;-2.084;2023-07-31T09:59:07;5.40;;;1.70;;
64282;SDS011;50497;50.720;-2.084;2023-07-31T10:01:40;4.28;;;1.33;;
64282;SDS011;50497;50.720;-2.084;2023-07-31T10:04:07;4.88;;;1.70;;
64282;SDS011;50497;50.720;-2.084;2023-07-31T10:06:34;7.00;;;1.60;;
64282;SDS011;50497;50.720;-2.084;2023-07-31T10:09:00;6.80;;;1.70;;
64282;SDS011;50497;50.720;-2.084;2023-07-31T10:11:28;7.85;;;2.00;;
64282;SDS011;50497;50.720;-2.084;2023-07-31T10:13:55;4.82;;;1.52;;
64282;SDS011;50497;50.720;-2.084;2023-07-31T10:18:47;7.10;;;1.73;;
64282;SDS011;50497;50.720;-2.084;2023-07-31T10:21:14;6.00;;;1.60;;
64282;SDS011;50497;50.720;-2.084;2023-07-31T10:23:40;5.43;;;1.65;;
64282;SDS011;50497;50.720;-2.084;2023-07-31T10:26:07;8.23;;;2.05;;
64282;SDS011;50497;50.720;-2.084;2023-07-31T10:28:32;7.82;;;2.00;;
64282;SDS011;50497;50.720;-2.084;2023-07-31T10:30:59;6.78;;;2.20;;
64282;SDS011;50497;50.720;-2.084;2023-07-31T10:33:26;5.57;;;1.70;;
64282;SDS011;50497;50.720;-2.084;2023-07-31T10:36:11;5.72;;;2.00;;
64282;SDS011;50497;50.720;-2.084;2023-07-31T10:38:38;6.78;;;2.22;;
64282;SDS011;50497;50.720;-2.084;2023-07-31T10:41:10;4.80;;;1.70;;
64282;SDS011;50497;50.720;-2.084;2023-07-31T10:43:38;4.60;;;1.63;;
64282;SDS011;50497;50.720;-2.084;2023-07-31T10:46:07;4.38;;;2.00;;
64282;SDS011;50497;50.720;-2.084;2023-07-31T10:48:34;7.88;;;1.98;;
64282;SDS011;50497;50.720;-2.084;2023-07-31T10:51:02;4.47;;;1.80;;
64282;SDS011;50497;50.720;-2.084;2023-07-31T10:53:35;6.07;;;1.83;;
64282;SDS011;50497;50.720;-2.084;2023-07-31T10:56:02;5.05;;;1.65;;
64282;SDS011;50497;50.720;-2.084;2023-07-31T10:58:29;5.25;;;1.75;;
64282;SDS011;50497;50.720;-2.084;2023-07-31T11:00:57;5.38;;;1.85;;
64282;SDS011;50497;50.720;-2.084;2023-07-31T11:03:40;5.20;;;2.10;;
64282;SDS011;50497;50.720;-2.084;2023-07-31T11:06:10;7.63;;;2.30;;
64282;SDS011;50497;50.720;-2.084;2023-07-31T11:11:09;6.63;;;2.00;;
64282;SDS011;50497;50.720;-2.084;2023-07-31T11:16:09;5.07;;;1.90;;
64282;SDS011;50497;50.720;-2.084;2023-07-31T11:18:38;5.88;;;1.77;;
64282;SDS011;50497;50.720;-2.084;2023-07-31T11:21:05;4.82;;;1.95;;
64282;SDS011;50497;50.720;-2.084;2023-07-31T11:23:30;6.40;;;2.13;;
64282;SDS011;50497;50.720;-2.084;2023-07-31T11:25:58;5.75;;;2.10;;
64282;SDS011;50497;50.720;-2.084;2023-07-31T11:28:25;5.18;;;1.90;;
64282;SDS011;50497;50.720;-2.084;2023-07-31T11:30:50;5.30;;;2.10;;
64282;SDS011;50497;50.720;-2.084;2023-07-31T11:33:16;5.20;;;2.08;;
64282;SDS011;50497;50.720;-2.084;2023-07-31T11:35:46;4.85;;;1.83;;
64282;SDS011;50497;50.720;-2.084;2023-07-31T11:38:30;4.90;;;1.60;;
64282;SDS011;50497;50.720;-2.084;2023-07-31T11:41:01;5.05;;;1.70;;
64282;SDS011;50497;50.720;-2.084;2023-07-31T11:43:28;6.85;;;2.25;;
64282;SDS011;50497;50.720;-2.084;2023-07-31T11:48:23;5.93;;;2.00;;
64282;SDS011;50497;50.720;-2.084;2023-07-31T11:50:53;6.00;;;1.90;;
64282;SDS011;50497;50.720;-2.084;2023-07-31T11:53:29;6.13;;;1.90;;
64282;SDS011;50497;50.720;-2.084;2023-07-31T11:55:59;6.20;;;1.98;;
64282;SDS011;50497;50.720;-2.084;2023-07-31T11:58:25;5.97;;;2.25;;
64282;SDS011;50497;50.720;-2.084;2023-07-31T12:00:52;9.40;;;2.50;;
64282;SDS011;50497;50.720;-2.084;2023-07-31T12:03:18;7.85;;;2.20;;
64282;SDS011;50497;50.720;-2.084;2023-07-31T12:08:12;4.95;;;2.20;;
64282;SDS011;50497;50.720;-2.084;2023-07-31T12:10:37;6.68;;;2.40;;
64282;SDS011;50497;50.720;-2.084;2023-07-31T12:13:04;5.97;;;2.22;;
64282;SDS011;50497;50.720;-2.084;2023-07-31T12:15:37;5.10;;;1.73;;
64282;SDS011;50497;50.720;-2.084;2023-07-31T12:18:06;6.85;;;2.53;;
64282;SDS011;50497;50.720;-2.084;2023-07-31T12:20:44;7.25;;;2.72;;
64282;SDS011;50497;50.720;-2.084;2023-07-31T12:23:17;8.13;;;2.58;;
64282;SDS011;50497;50.720;-2.084;2023-07-31T12:25:44;6.63;;;2.60;;
64282;SDS011;50497;50.720;-2.084;2023-07-31T12:28:10;7.00;;;2.30;;
64282;SDS011;50497;50.720;-2.084;2023-07-31T12:30:39;8.07;;;2.67;;
64282;SDS011;50497;50.720;-2.084;2023-07-31T12:33:12;8.55;;;2.83;;
64282;SDS011;50497;50.720;-2.084;2023-07-31T12:35:44;8.43;;;2.90;;
64282;SDS011;50497;50.720;-2.084;2023-07-31T12:38:11;8.25;;;2.75;;
64282;SDS011;50497;50.720;-2.084;2023-07-31T12:40:38;7.57;;;2.92;;
64282;SDS011;50497;50.720;-2.084;2023-07-31T12:43:05;8.20;;;3.03;;
64282;SDS011;50497;50.720;-2.084;2023-07-31T12:45:31;8.95;;;2.90;;
64282;SDS011;50497;50.720;-2.084;2023-07-31T12:50:22;8.55;;;3.05;;
64282;SDS011;50497;50.720;-2.084;2023-07-31T12:52:48;9.63;;;3.38;;
64282;SDS011;50497;50.720;-2.084;2023-07-31T12:55:14;13.00;;;3.50;;
64282;SDS011;50497;50.720;-2.084;2023-07-31T12:57:40;13.73;;;4.00;;
64282;SDS011;50497;50.720;-2.084;2023-07-31T13:00:07;11.02;;;3.50;;
64282;SDS011;50497;50.720;-2.084;2023-07-31T13:02:33;10.90;;;3.60;;
64282;SDS011;50497;50.720;-2.084;2023-07-31T13:04:58;12.55;;;4.15;;
64282;SDS011;50497;50.720;-2.084;2023-07-31T13:07:24;13.15;;;3.83;;
64282;SDS011;50497;50.720;-2.084;2023-07-31T13:09:50;15.35;;;4.63;;
64282;SDS011;50497;50.720;-2.084;2023-07-31T13:12:15;11.82;;;4.25;;
64282;SDS011;50497;50.720;-2.084;2023-07-31T13:14:41;12.02;;;3.92;;
64282;SDS011;50497;50.720;-2.084;2023-07-31T13:17:06;9.25;;;3.90;;
64282;SDS011;50497;50.720;-2.084;2023-07-31T13:19:31;16.55;;;4.55;;
64282;SDS011;50497;50.720;-2.084;2023-07-31T13:21:57;12.30;;;3.97;;
64282;SDS011;50497;50.720;-2.084;2023-07-31T13:24:22;9.25;;;3.88;;
64282;SDS011;50497;50.720;-2.084;2023-07-31T13:26:47;10.52;;;3.67;;
64282;SDS011;50497;50.720;-2.084;2023-07-31T13:29:13;10.32;;;3.80;;
64282;SDS011;50497;50.720;-2.084;2023-07-31T13:31:38;12.00;;;3.63;;
64282;SDS011;50497;50.720;-2.084;2023-07-31T13:34:03;10.93;;;3.83;;
64282;SDS011;50497;50.720;-2.084;2023-07-31T13:36:30;10.73;;;3.75;;
64282;SDS011;50497;50.720;-2.084;2023-07-31T13:38:55;10.93;;;4.45;;
64282;SDS011;50497;50.720;-2.084;2023-07-31T13:41:20;11.43;;;5.38;;
64282;SDS011;50497;50.720;-2.084;2023-07-31T13:43:46;11.77;;;5.07;;
64282;SDS011;50497;50.720;-2.084;2023-07-31T13:46:11;13.95;;;4.82;;
64282;SDS011;50497;50.720;-2.084;2023-07-31T13:48:36;12.77;;;4.45;;
64282;SDS011;50497;50.720;-2.084;2023-07-31T13:51:02;12.00;;;4.57;;
64282;SDS011;50497;50.720;-2.084;2023-07-31T13:53:28;16.30;;;5.55;;
64282;SDS011;50497;50.720;-2.084;2023-07-31T13:55:53;17.20;;;5.30;;
64282;SDS011;50497;50.720;-2.084;2023-07-31T13:58:19;14.00;;;4.63;;
64282;SDS011;50497;50.720;-2.084;2023-07-31T14:00:45;12.07;;;4.75;;
64282;SDS011;50497;50.720;-2.084;2023-07-31T14:03:11;13.93;;;5.10;;
64282;SDS011;50497;50.720;-2.084;2023-07-31T14:05:36;13.93;;;4.72;;
64282;SDS011;50497;50.720;-2.084;2023-07-31T14:08:02;14.10;;;4.80;;
64282;SDS011;50497;50.720;-2.084;2023-07-31T14:10:28;14.85;;;5.22;;
64282;SDS011;50497;50.720;-2.084;2023-07-31T14:12:53;12.68;;;4.43;;
64282;SDS011;50497;50.720;-2.084;2023-07-31T14:15:18;14.02;;;5.13;;
64282;SDS011;50497;50.720;-2.084;2023-07-31T14:17:44;12.88;;;4.57;;
64282;SDS011;50497;50.720;-2.084;2023-07-31T14:20:09;12.43;;;3.70;;
64282;SDS011;50497;50.720;-2.084;2023-07-31T14:22:35;16.63;;;4.25;;
64282;SDS011;50497;50.720;-2.084;2023-07-31T14:25:01;13.80;;;4.45;;
64282;SDS011;50497;50.720;-2.084;2023-07-31T14:27:27;10.90;;;2.95;;
64282;SDS011;50497;50.720;-2.084;2023-07-31T14:29:52;9.82;;;3.03;;
64282;SDS011;50497;50.720;-2.084;2023-07-31T14:32:21;8.15;;;3.17;;
64282;SDS011;50497;50.720;-2.084;2023-07-31T14:34:48;9.13;;;3.10;;
64282;SDS011;50497;50.720;-2.084;2023-07-31T14:37:14;8.60;;;2.90;;
64282;SDS011;50497;50.720;-2.084;2023-07-31T14:39:39;9.27;;;3.42;;
64282;SDS011;50497;50.720;-2.084;2023-07-31T14:42:04;10.13;;;4.00;;
64282;SDS011;50497;50.720;-2.084;2023-07-31T14:44:30;13.27;;;3.83;;
64282;SDS011;50497;50.720;-2.084;2023-07-31T14:46:55;11.07;;;3.58;;
64282;SDS011;50497;50.720;-2.084;2023-07-31T14:49:21;9.68;;;3.40;;
64282;SDS011;50497;50.720;-2.084;2023-07-31T14:51:46;11.07;;;3.40;;